Terminal Aerodrome Forecast
Issued by NWS Raleigh/Durham, NC

Home | Current Version | Previous Version | Text Only | Print | Product List | Glossary On
Versions: 1 2 3 4 5 6 7 8 9 10 11 12 13 14 15 16 17 18 19 20 21 22 23 24 25 26 27 28 29 30 31 32 33 34 35 36 37 38 39
533
FTUS42 KRAH 260520
TAFGSO
TAF
KGSO 260520Z 2606/2706 13005KT 6SM BR OVC007
      TEMPO 2609/2613 3SM BR OVC004
     FM261800 18007KT P6SM BKN015
     FM262100 19006KT P6SM OVC035 PROB30 2621/2624 P6SM -TSRA
      OVC025CB
     FM270000 18008KT 5SM SHRA BKN035=

USA.gov is the U.S. government's official web portal to all federal, state and local government web resources and services.